TimeCDT,TemperatureF,Dew PointF,Humidity,Sea Level PressureIn,VisibilityMPH,Wind Direction,Wind SpeedMPH,Gust SpeedMPH,PrecipitationIn,Events,Conditions,WindDirDegrees,DateUTC
12:15 AM,58.1,50.9,77,30.04,10.0,ENE,9.2,-,N/A,,Clear,70,2013-06-18 05:15:00
12:35 AM,58.1,48.2,70,30.05,7.0,ENE,11.5,-,N/A,,Clear,60,2013-06-18 05:35:00
12:55 AM,57.4,44.1,61,30.05,10.0,NE,10.4,-,N/A,,Clear,50,2013-06-18 05:55:00
1:15 AM,56.5,43.9,63,30.06,10.0,NE,8.1,-,N/A,,Clear,50,2013-06-18 06:15:00
1:35 AM,55.4,44.8,67,30.06,10.0,ENE,11.5,-,N/A,,Clear,70,2013-06-18 06:35:00
1:55 AM,54.3,42.3,64,30.07,10.0,NNE,15.0,18.4,N/A,,Clear,30,2013-06-18 06:55:00
2:15 AM,52.9,42.1,67,30.07,10.0,NE,11.5,18.4,N/A,,Clear,50,2013-06-18 07:15:00
2:35 AM,52.0,41.0,66,30.06,10.0,NE,13.8,-,N/A,,Clear,50,2013-06-18 07:35:00
2:55 AM,51.6,41.9,69,30.06,10.0,NNE,10.4,17.3,N/A,,Clear,30,2013-06-18 07:55:00
3:15 AM,50.9,41.0,69,30.06,10.0,NE,10.4,-,N/A,,Clear,40,2013-06-18 08:15:00
3:35 AM,50.4,41.0,70,30.07,10.0,NNE,10.4,-,N/A,,Clear,30,2013-06-18 08:35:00
3:55 AM,49.3,41.7,75,30.07,10.0,NNE,9.2,-,N/A,,Clear,20,2013-06-18 08:55:00
4:15 AM,49.8,41.0,72,30.08,10.0,NE,8.1,-,N/A,,Clear,40,2013-06-18 09:15:00
4:35 AM,49.5,40.5,71,30.09,10.0,NE,6.9,-,N/A,,Clear,40,2013-06-18 09:35:00
4:55 AM,49.5,40.3,71,30.09,10.0,NNE,8.1,-,N/A,,Clear,30,2013-06-18 09:55:00
5:15 AM,49.1,40.5,72,30.10,10.0,NNE,6.9,-,N/A,,Clear,30,2013-06-18 10:15:00
5:35 AM,49.3,40.3,71,30.10,10.0,NNE,8.1,-,N/A,,Clear,30,2013-06-18 10:35:00
5:55 AM,49.5,40.3,71,30.11,10.0,NNE,5.8,-,N/A,,Scattered Clouds,30,2013-06-18 10:55:00
6:15 AM,49.6,40.8,72,30.11,10.0,North,9.2,-,N/A,,Mostly Cloudy,10,2013-06-18 11:15:00
6:35 AM,50.4,42.1,73,30.11,10.0,NNE,8.1,-,N/A,,Scattered Clouds,30,2013-06-18 11:35:00
6:55 AM,51.4,41.5,69,30.11,10.0,NE,6.9,-,N/A,,Clear,40,2013-06-18 11:55:00
7:15 AM,52.5,41.9,67,30.12,10.0,NE,6.9,-,N/A,,Clear,50,2013-06-18 12:15:00
7:35 AM,54.0,41.5,63,30.13,10.0,ENE,6.9,-,N/A,,Mostly Cloudy,60,2013-06-18 12:35:00
7:55 AM,54.7,42.1,62,30.14,10.0,ENE,3.5,-,N/A,,Overcast,70,2013-06-18 12:55:00
8:15 AM,54.5,42.8,65,30.14,10.0,ENE,3.5,-,N/A,,Overcast,60,2013-06-18 13:15:00
8:35 AM,55.6,43.2,63,30.14,10.0,ENE,3.5,-,N/A,,Mostly Cloudy,70,2013-06-18 13:35:00
8:55 AM,56.3,43.3,62,30.14,10.0,NE,4.6,-,N/A,,Mostly Cloudy,50,2013-06-18 13:55:00
9:15 AM,57.9,44.8,62,30.14,10.0,NNE,3.5,-,N/A,,Scattered Clouds,20,2013-06-18 14:15:00
9:35 AM,59.0,45.7,61,30.14,10.0,NE,3.5,-,N/A,,Clear,40,2013-06-18 14:35:00
9:55 AM,60.3,46.2,60,30.14,10.0,Calm,Calm,-,N/A,,Clear,0,2013-06-18 14:55:00
10:15 AM,61.7,47.7,60,30.14,10.0,ENE,5.8,-,N/A,,Scattered Clouds,70,2013-06-18 15:15:00
10:35 AM,62.8,49.1,61,30.14,10.0,East,5.8,-,N/A,,Scattered Clouds,80,2013-06-18 15:35:00
10:55 AM,64.0,50.9,62,30.14,10.0,NE,4.6,-,N/A,,Clear,50,2013-06-18 15:55:00
11:15 AM,65.7,50.5,58,30.14,7.0,ENE,6.9,-,N/A,,Clear,70,2013-06-18 16:15:00
11:35 AM,66.2,50.2,56,30.14,7.0,East,5.8,-,N/A,,Clear,100,2013-06-18 16:35:00
11:55 AM,66.2,48.7,53,30.14,7.0,ESE,3.5,-,N/A,,Clear,110,2013-06-18 16:55:00
12:15 PM,67.3,48.9,52,30.13,10.0,East,5.8,-,N/A,,Clear,80,2013-06-18 17:15:00
12:35 PM,68.0,48.7,50,30.13,7.0,ENE,6.9,-,N/A,,Clear,70,2013-06-18 17:35:00
12:55 PM,68.0,47.7,48,30.13,7.0,NE,6.9,-,N/A,,Clear,50,2013-06-18 17:55:00
1:15 PM,68.9,47.3,46,30.13,10.0,East,8.1,-,N/A,,Clear,80,2013-06-18 18:15:00
1:35 PM,69.1,47.5,46,30.12,7.0,ENE,6.9,-,N/A,,Clear,70,2013-06-18 18:35:00
2:15 PM,70.0,46.4,43,30.12,7.0,ENE,10.4,17.3,N/A,,Clear,60,2013-06-18 19:15:00
2:35 PM,70.7,46.4,42,30.12,5.0,ENE,5.8,-,N/A,,Haze,70,2013-06-18 19:35:00
2:55 PM,70.2,45.9,42,30.12,10.0,ENE,8.1,-,N/A,,Scattered Clouds,60,2013-06-18 19:55:00
3:15 PM,71.1,47.5,43,30.12,7.0,ESE,5.8,-,N/A,,Scattered Clouds,120,2013-06-18 20:15:00
3:35 PM,69.3,45.3,42,30.12,7.0,East,5.8,-,N/A,,Clear,80,2013-06-18 20:35:00
3:55 PM,69.1,45.3,42,30.12,10.0,ENE,5.8,-,N/A,,Scattered Clouds,70,2013-06-18 20:55:00
4:15 PM,70.3,43.5,38,30.13,7.0,SE,6.9,-,N/A,,Scattered Clouds,130,2013-06-18 21:15:00
4:35 PM,70.5,43.9,38,30.12,10.0,East,8.1,-,N/A,,Clear,100,2013-06-18 21:35:00
4:55 PM,70.9,44.1,38,30.12,7.0,East,9.2,-,N/A,,Clear,90,2013-06-18 21:55:00
5:15 PM,70.5,44.8,40,30.11,7.0,ESE,8.1,-,N/A,,Clear,110,2013-06-18 22:15:00
5:35 PM,70.3,44.6,40,30.11,7.0,ENE,8.1,-,N/A,,Clear,70,2013-06-18 22:35:00
5:55 PM,70.2,45.7,41,30.11,10.0,ENE,8.1,-,N/A,,Clear,70,2013-06-18 22:55:00
6:15 PM,69.6,46.2,43,30.11,7.0,ESE,8.1,-,N/A,,Clear,110,2013-06-18 23:15:00
6:35 PM,68.5,45.5,44,30.11,7.0,ESE,6.9,-,N/A,,Clear,110,2013-06-18 23:35:00
6:55 PM,68.0,43.7,41,30.11,7.0,ESE,8.1,-,N/A,,Clear,110,2013-06-18 23:55:00
7:15 PM,67.1,43.5,42,30.11,7.0,ESE,5.8,-,N/A,,Clear,110,2013-06-19 00:15:00
7:35 PM,66.2,41.5,41,30.11,10.0,ESE,5.8,-,N/A,,Clear,110,2013-06-19 00:35:00
8:35 PM,60.8,43.3,53,30.11,7.0,ESE,4.6,-,N/A,,Clear,110,2013-06-19 01:35:00
8:55 PM,61.3,41.9,49,30.11,7.0,Calm,Calm,-,N/A,,Clear,0,2013-06-19 01:55:00
9:15 PM,58.6,42.6,55,30.11,10.0,Calm,Calm,-,N/A,,Clear,0,2013-06-19 02:15:00
9:35 PM,57.0,44.4,63,30.11,7.0,Calm,Calm,-,N/A,,Clear,0,2013-06-19 02:35:00
9:55 PM,56.8,44.4,63,30.11,7.0,Calm,Calm,-,N/A,,Clear,0,2013-06-19 02:55:00
10:15 PM,54.9,45.9,72,30.12,7.0,Calm,Calm,-,N/A,,Clear,0,2013-06-19 03:15:00
10:35 PM,53.1,46.8,79,30.11,7.0,Calm,Calm,-,N/A,,Clear,0,2013-06-19 03:35:00
10:55 PM,51.3,46.4,83,30.11,7.0,Calm,Calm,-,N/A,,Clear,0,2013-06-19 03:55:00
11:15 PM,52.7,43.7,71,30.11,7.0,Calm,Calm,-,N/A,,Clear,0,2013-06-19 04:15:00
11:35 PM,50.4,45.5,83,30.11,7.0,Calm,Calm,-,N/A,,Clear,0,2013-06-19 04:35:00
11:55 PM,51.3,46.2,83,30.11,10.0,Calm,Calm,-,N/A,,Clear,0,2013-06-19 04:55:00